Time;durP1;ratioP1;P1;durP2;ratioP2;P2;SDS_P1;SDS_P2;PMS_P1;PMS_P2;Temp;Humidity;BMP_temperature;BMP_pressure;BME280_temperature;BME280_humidity;BME280_pressure;Samples;Min_cycle;Max_cycle;Signal;HPM_P1;HPM_P2
2022/12/24 00:01:10;;;;;;;1.05;0.95;;;;;;;1.81;95.60;98891.41;10512452;28;20053;-74
2022/12/24 00:06:16;;;;;;;1.00;0.77;;;;;;;1.86;95.78;98879.78;10475243;28;20091;-75
2022/12/24 00:11:19;;;;;;;0.93;0.90;;;;;;;1.81;95.58;98886.00;10492724;28;20414;-75
2022/12/24 00:16:22;;;;;;;1.48;1.20;;;;;;;1.77;95.34;98895.72;10503288;28;20040;-74
2022/12/24 00:21:24;;;;;;;1.40;1.30;;;;;;;1.95;95.48;98895.22;10533760;28;20051;-74
2022/12/24 00:26:26;;;;;;;3.05;1.20;;;;;;;2.03;95.54;98902.00;10512235;28;20032;-74
2022/12/24 00:31:29;;;;;;;2.45;1.45;;;;;;;2.08;95.23;98896.56;10528135;28;20411;-74
2022/12/24 00:36:31;;;;;;;1.52;1.40;;;;;;;2.15;95.25;98907.16;10514813;28;20048;-74
2022/12/24 00:41:34;;;;;;;1.77;1.48;;;;;;;2.10;94.76;98907.97;10509059;28;20485;-74
2022/12/24 00:46:39;;;;;;;1.70;1.60;;;;;;;2.03;94.59;98908.22;10527852;28;20036;-74
2022/12/24 00:51:45;;;;;;;1.67;1.33;;;;;;;1.83;95.22;98913.56;10499393;28;20052;-74
2022/12/24 00:56:47;;;;;;;1.80;1.27;;;;;;;1.85;95.03;98922.22;10517942;28;20045;-74
2022/12/24 01:01:50;;;;;;;1.52;1.42;;;;;;;1.94;95.53;98917.13;10500942;28;20032;-74
2022/12/24 01:06:52;;;;;;;1.17;1.02;;;;;;;1.74;95.29;98923.31;10505398;28;20037;-74
2022/12/24 01:11:54;;;;;;;1.52;1.40;;;;;;;1.63;95.00;98927.03;10492317;28;20041;-73
2022/12/24 01:17:00;;;;;;;1.58;1.30;;;;;;;1.75;95.46;98924.94;10503045;28;20048;-75
2022/12/24 01:22:03;;;;;;;1.25;1.10;;;;;;;1.94;95.44;98931.47;10473936;28;20542;-74
2022/12/24 01:27:05;;;;;;;1.25;1.10;;;;;;;1.92;95.32;98927.41;10463862;28;20053;-74
2022/12/24 01:32:07;;;;;;;0.90;0.80;;;;;;;1.79;95.14;98926.81;10516057;28;20048;-74
2022/12/24 01:37:10;;;;;;;1.65;1.27;;;;;;;1.74;94.78;98948.44;10495146;28;20048;-74
2022/12/24 01:47:42;;;;;;;1.10;0.82;;;;;;;1.89;93.77;98944.97;10504983;28;20052;-73
2022/12/24 01:52:44;;;;;;;1.20;0.82;;;;;;;1.81;92.94;98956.31;10496068;28;20055;-73
2022/12/24 01:57:55;;;;;;;1.15;0.95;;;;;;;1.76;93.30;98967.13;10474367;28;20515;-73
2022/12/24 02:02:58;;;;;;;0.93;0.88;;;;;;;1.69;92.67;98963.81;10480549;28;20384;-73
2022/12/24 02:08:02;;;;;;;1.35;1.10;;;;;;;1.76;92.58;98969.81;10490214;28;20063;-73
2022/12/24 02:13:04;;;;;;;1.48;1.17;;;;;;;1.66;93.16;98975.16;10523068;28;20044;-73
2022/12/24 02:18:40;;;;;;;1.58;1.10;;;;;;;1.66;92.90;98977.88;10506727;28;20040;-73
2022/12/24 02:23:56;;;;;;;1.20;1.10;;;;;;;1.57;93.50;98992.97;10431738;28;20051;-74
2022/12/24 02:29:29;;;;;;;1.80;1.05;;;;;;;1.38;94.05;99011.50;10516107;28;20043;-73
2022/12/24 02:34:56;;;;;;;1.48;0.90;;;;;;;1.11;93.61;99035.91;10518514;28;20032;-73
2022/12/24 02:40:03;;;;;;;0.50;0.50;;;;;;;0.77;94.15;99065.88;10487357;28;20048;-73
2022/12/24 02:45:12;;;;;;;0.40;0.33;;;;;;;0.51;92.19;99082.88;10494160;28;20037;-73
2022/12/24 02:50:16;;;;;;;0.25;0.25;;;;;;;0.41;92.03;99104.34;10484659;28;20400;-73
2022/12/24 02:55:25;;;;;;;0.30;0.20;;;;;;;0.27;91.41;99126.31;10521560;28;20032;-74
2022/12/24 03:00:55;;;;;;;0.20;0.20;;;;;;;0.18;91.33;99154.00;10491597;28;20044;-74
2022/12/24 03:06:26;;;;;;;0.10;0.10;;;;;;;0.03;92.04;99169.97;10506405;28;20033;-74
2022/12/24 03:11:29;;;;;;;0.10;0.10;;;;;;;0.00;92.17;99184.75;10474023;28;20543;-75
2022/12/24 03:16:31;;;;;;;0.10;0.10;;;;;;;-0.07;92.22;99194.88;10490001;28;20071;-75
2022/12/24 03:21:35;;;;;;;0.17;0.10;;;;;;;-0.15;92.55;99209.63;10499623;28;20040;-75
2022/12/24 03:26:38;;;;;;;0.10;0.10;;;;;;;-0.20;92.10;99219.47;10494943;28;20046;-74
2022/12/24 03:32:09;;;;;;;0.30;0.20;;;;;;;-0.28;91.27;99238.78;10526535;28;20055;-74
2022/12/24 03:37:11;;;;;;;0.47;0.30;;;;;;;-0.19;90.63;99250.78;10522178;28;20059;-74
2022/12/24 03:42:14;;;;;;;0.30;0.30;;;;;;;-0.27;91.03;99259.28;10512000;28;20044;-74
2022/12/24 03:47:16;;;;;;;0.60;0.60;;;;;;;-0.41;91.10;99272.25;10511017;28;20045;-74
2022/12/24 03:52:22;;;;;;;0.20;0.20;;;;;;;-0.43;91.61;99296.75;10491362;28;20045;-75
2022/12/24 03:57:28;;;;;;;0.55;0.25;;;;;;;-0.54;91.21;99305.69;10517226;28;20051;-74
2022/12/24 04:02:56;;;;;;;0.38;0.30;;;;;;;-0.65;90.91;99318.16;10518045;28;20040;-74
2022/12/24 04:07:58;;;;;;;0.68;0.40;;;;;;;-0.69;91.39;99329.66;10519172;28;20047;-74
2022/12/24 04:13:04;;;;;;;0.60;0.20;;;;;;;-0.73;91.76;99341.97;10528601;28;20044;-74
2022/12/24 04:18:07;;;;;;;0.20;0.10;;;;;;;-0.80;92.31;99354.75;10528450;28;20044;-75
2022/12/24 04:23:09;;;;;;;1.80;0.20;;;;;;;-0.83;91.73;99358.75;10510708;28;20081;-74
2022/12/24 04:28:13;;;;;;;0.47;0.20;;;;;;;-0.91;91.70;99361.78;10524115;28;20032;-74
2022/12/24 04:33:34;;;;;;;0.68;0.35;;;;;;;-1.00;91.07;99374.81;10492387;28;20044;-73
2022/12/24 04:38:37;;;;;;;0.65;0.40;;;;;;;-0.95;91.54;99388.38;10487568;28;20053;-73
2022/12/24 04:43:39;;;;;;;1.35;0.40;;;;;;;-1.07;91.05;99397.53;10518056;28;20033;-73
2022/12/24 04:48:41;;;;;;;0.93;0.50;;;;;;;-1.06;91.29;99401.84;10514177;28;20036;-75
2022/12/24 04:53:44;;;;;;;0.75;0.60;;;;;;;-1.09;90.82;99418.47;10526759;28;20056;-74
2022/12/24 04:58:46;;;;;;;0.95;0.40;;;;;;;-1.25;91.23;99412.75;10512091;28;20048;-74
2022/12/24 05:03:49;;;;;;;1.70;0.40;;;;;;;-1.27;90.94;99425.63;10494094;28;20045;-74
2022/12/24 05:08:55;;;;;;;0.57;0.43;;;;;;;-1.30;90.90;99430.66;10523888;28;20052;-74
2022/12/24 05:13:58;;;;;;;0.73;0.50;;;;;;;-1.39;90.74;99453.56;10509412;28;20048;-73
2022/12/24 05:19:00;;;;;;;0.73;0.40;;;;;;;-1.44;90.70;99461.53;10526643;28;20036;-73
2022/12/24 05:29:24;;;;;;;3.80;0.73;;;;;;;-1.58;90.79;99490.50;10500544;28;20047;-74
2022/12/24 05:34:26;;;;;;;0.45;0.35;;;;;;;-1.54;90.84;99487.13;10515341;28;20036;-74
2022/12/24 05:39:28;;;;;;;1.48;0.68;;;;;;;-1.63;90.71;99496.56;10511874;28;20044;-73
2022/12/24 05:44:30;;;;;;;1.45;0.90;;;;;;;-1.70;90.75;99508.50;10490402;28;20045;-73
2022/12/24 05:49:33;;;;;;;1.88;1.40;;;;;;;-1.60;91.00;99514.13;10521716;28;20561;-74
2022/12/24 05:54:35;;;;;;;3.90;2.10;;;;;;;-1.69;90.99;99527.09;10510638;28;20041;-74
2022/12/24 05:59:37;;;;;;;5.65;3.00;;;;;;;-1.84;90.68;99527.50;10499574;28;20048;-73
2022/12/24 06:04:40;;;;;;;4.30;2.50;;;;;;;-1.89;91.00;99539.97;10516221;28;20056;-74
2022/12/24 06:09:42;;;;;;;6.68;3.25;;;;;;;-1.93;90.66;99547.66;10516332;28;20043;-73
2022/12/24 06:14:44;;;;;;;4.95;2.72;;;;;;;-1.94;90.91;99561.31;10512529;28;20040;-74
2022/12/24 06:19:46;;;;;;;4.28;2.75;;;;;;;-2.07;90.93;99578.47;10514839;28;20523;-74
2022/12/24 06:24:49;;;;;;;3.28;1.75;;;;;;;-2.08;91.14;99584.03;10514102;28;20037;-73
2022/12/24 06:29:52;;;;;;;2.83;1.38;;;;;;;-1.95;91.01;99600.00;10512946;28;20049;-73
2022/12/24 06:34:54;;;;;;;1.38;0.95;;;;;;;-2.03;90.93;99617.28;10512923;28;20045;-73
2022/12/24 06:39:56;;;;;;;1.90;0.85;;;;;;;-2.12;91.18;99630.16;10521504;28;20045;-73
2022/12/24 06:44:59;;;;;;;1.52;0.88;;;;;;;-2.16;91.12;99628.97;10510356;28;20039;-73
2022/12/24 06:50:03;;;;;;;1.25;0.73;;;;;;;-2.23;91.48;99644.38;10505908;28;20087;-73
2022/12/24 06:55:06;;;;;;;3.40;1.08;;;;;;;-2.26;91.78;99643.97;10522277;28;20047;-73
2022/12/24 07:00:10;;;;;;;2.40;1.25;;;;;;;-2.23;92.28;99652.44;10513636;28;20490;-74
2022/12/24 07:05:13;;;;;;;2.97;1.67;;;;;;;-2.33;92.16;99662.03;10500830;28;20040;-73
2022/12/24 07:10:16;;;;;;;3.85;1.70;;;;;;;-2.40;92.29;99667.47;10520340;28;20491;-73
2022/12/24 07:15:19;;;;;;;3.08;1.65;;;;;;;-2.43;92.47;99678.63;10485135;28;20304;-73
2022/12/24 07:20:21;;;;;;;2.85;1.17;;;;;;;-2.47;92.36;99694.38;10503593;28;20066;-73
2022/12/24 07:25:24;;;;;;;2.47;1.20;;;;;;;-2.50;92.37;99702.06;10514985;28;20045;-72
2022/12/24 07:30:26;;;;;;;1.60;0.88;;;;;;;-2.40;92.81;99715.00;10515962;28;20616;-74
2022/12/24 07:35:28;;;;;;;2.70;0.95;;;;;;;-2.42;92.89;99725.16;10513056;28;20048;-74
2022/12/24 07:40:33;;;;;;;2.83;0.85;;;;;;;-2.43;93.09;99732.34;10517375;28;20048;-73
2022/12/24 07:45:35;;;;;;;2.28;0.90;;;;;;;-2.36;93.25;99730.47;10522188;28;20036;-73
2022/12/24 07:50:37;;;;;;;1.85;0.70;;;;;;;-2.12;92.74;99734.16;10493219;28;20060;-73
2022/12/24 07:55:39;;;;;;;0.63;0.63;;;;;;;-2.20;92.26;99746.03;10520925;28;20353;-73
2022/12/24 08:00:41;;;;;;;2.17;0.60;;;;;;;-2.17;91.53;99742.09;10518563;28;20048;-72
2022/12/24 08:05:44;;;;;;;0.85;0.55;;;;;;;-2.31;91.41;99753.97;10519837;28;20041;-73
2022/12/24 08:10:46;;;;;;;2.35;0.70;;;;;;;-2.35;91.30;99769.72;10493074;28;20049;-73
2022/12/24 08:15:48;;;;;;;0.60;0.52;;;;;;;-2.53;90.92;99781.22;10522567;28;20037;-73
2022/12/24 08:20:51;;;;;;;1.00;0.50;;;;;;;-2.75;90.70;99788.78;10523436;28;20063;-73
2022/12/24 08:25:53;;;;;;;0.50;0.50;;;;;;;-2.76;90.78;99797.06;10501924;28;20047;-74
2022/12/24 08:30:56;;;;;;;2.35;0.57;;;;;;;-2.83;90.63;99798.94;10533521;28;20364;-73
2022/12/24 08:36:00;;;;;;;1.83;0.70;;;;;;;-2.79;90.42;99816.25;10532791;28;20055;-74
2022/12/24 08:41:02;;;;;;;1.33;0.70;;;;;;;-2.79;90.50;99830.50;10479545;28;20044;-75
2022/12/24 08:46:05;;;;;;;4.07;0.90;;;;;;;-2.72;90.67;99843.91;10485911;28;20416;-77
2022/12/24 08:51:08;;;;;;;1.08;0.50;;;;;;;-2.69;89.97;99845.34;10493525;28;20044;-74
2022/12/24 08:56:11;;;;;;;2.53;0.70;;;;;;;-2.79;89.61;99854.66;10527127;28;20055;-74
2022/12/24 09:01:15;;;;;;;1.95;0.50;;;;;;;-2.84;89.43;99856.34;10506939;28;20040;-78
2022/12/24 09:06:18;;;;;;;0.70;0.47;;;;;;;-2.79;88.89;99865.41;10484604;28;20044;-72
2022/12/24 09:11:21;;;;;;;1.27;0.60;;;;;;;-2.67;88.83;99867.44;10519005;28;20045;-72
2022/12/24 09:16:23;;;;;;;2.50;0.52;;;;;;;-2.57;88.88;99867.81;10521564;28;20051;-73
2022/12/24 09:21:25;;;;;;;1.73;0.70;;;;;;;-2.32;88.93;99866.00;10513143;28;20059;-72
2022/12/24 09:26:28;;;;;;;1.52;1.00;;;;;;;-2.18;88.48;99872.13;10514879;28;20525;-74
2022/12/24 09:31:31;;;;;;;2.20;1.40;;;;;;;-2.09;88.09;99878.03;10503102;28;20067;-74
2022/12/24 09:36:33;;;;;;;3.47;0.98;;;;;;;-2.01;87.63;99888.53;10511002;28;20059;-73
2022/12/24 09:41:36;;;;;;;1.20;0.80;;;;;;;-1.99;87.54;99883.78;10494284;28;20045;-72
2022/12/24 09:46:39;;;;;;;2.15;1.20;;;;;;;-1.80;87.57;99901.63;10507870;28;20041;-72
2022/12/24 09:51:51;;;;;;;5.22;1.45;;;;;;;-1.71;86.90;99905.69;10513403;28;20040;-72
2022/12/24 09:56:54;;;;;;;2.40;1.65;;;;;;;-1.79;87.43;99911.34;10454511;28;20443;-72
2022/12/24 10:01:56;;;;;;;3.63;1.80;;;;;;;-1.85;87.11;99914.91;10501744;28;20506;-74
2022/12/24 10:07:01;;;;;;;2.55;1.70;;;;;;;-1.87;87.25;99919.69;10484419;28;20041;-73
2022/12/24 10:12:18;;;;;;;5.55;2.22;;;;;;;-1.77;87.67;99916.50;10503894;28;20045;-73
2022/12/24 10:17:43;;;;;;;5.13;2.28;;;;;;;-1.70;87.59;99920.78;10494879;28;20040;-74
2022/12/24 10:22:51;;;;;;;5.05;1.75;;;;;;;-1.72;87.66;99920.19;10492814;28;20041;-75
2022/12/24 10:27:54;;;;;;;3.28;1.30;;;;;;;-1.70;88.03;99934.25;10521658;28;20036;-76
2022/12/24 10:32:57;;;;;;;3.03;1.30;;;;;;;-1.57;88.03;99931.44;10511376;28;20060;-74
2022/12/24 10:37:59;;;;;;;3.45;1.15;;;;;;;-1.66;87.86;99938.13;10517190;28;20053;-73
2022/12/24 10:43:16;;;;;;;2.47;1.10;;;;;;;-1.73;87.99;99952.69;10508190;28;20379;-74
2022/12/24 10:48:28;;;;;;;2.15;1.10;;;;;;;-1.63;88.34;99947.63;10513199;28;20533;-75
2022/12/24 10:53:37;;;;;;;3.00;1.10;;;;;;;-1.40;87.62;99949.72;10493442;28;20048;-74
2022/12/24 10:58:53;;;;;;;2.00;1.00;;;;;;;-1.56;86.98;99948.41;10494772;28;20044;-79
2022/12/24 11:04:00;;;;;;;3.00;1.17;;;;;;;-1.64;87.54;99971.00;10491042;28;20033;-76
2022/12/24 11:09:25;;;;;;;2.63;1.15;;;;;;;-1.70;86.71;99981.84;10475837;28;20048;-80
2022/12/24 11:14:35;;;;;;;4.47;1.33;;;;;;;-1.71;86.87;99985.56;10502276;28;20052;-82
2022/12/24 11:19:38;;;;;;;2.85;1.17;;;;;;;-1.71;86.48;99993.63;10501804;28;20423;-77
2022/12/24 11:24:42;;;;;;;3.60;1.13;;;;;;;-1.52;86.73;100009.63;10515472;28;20040;-78
2022/12/24 11:29:44;;;;;;;2.60;1.15;;;;;;;-1.55;86.34;100026.22;10486300;28;20043;-75
2022/12/24 11:34:48;;;;;;;3.38;1.10;;;;;;;-1.49;86.32;100037.97;10505645;28;20052;-78
2022/12/24 11:39:52;;;;;;;2.70;1.25;;;;;;;-1.54;85.84;100035.94;10524232;28;20046;-78
2022/12/24 11:44:56;;;;;;;2.17;0.70;;;;;;;-1.56;85.90;100040.72;10515785;28;20053;-74
2022/12/24 11:50:28;;;;;;;2.15;0.70;;;;;;;-1.60;86.38;100061.00;10511455;28;20052;-73
2022/12/24 11:55:44;;;;;;;0.88;0.77;;;;;;;-1.67;86.78;100062.91;10501705;28;20044;-74
2022/12/24 12:00:48;;;;;;;2.67;0.70;;;;;;;-1.57;86.77;100083.94;10531250;28;20523;-74
2022/12/24 12:05:51;;;;;;;2.95;0.90;;;;;;;-1.56;87.00;100083.75;10492760;28;20041;-74
2022/12/24 12:10:53;;;;;;;1.83;0.98;;;;;;;-1.56;86.93;100089.13;10514233;28;20063;-73
2022/12/24 12:16:24;;;;;;;0.88;0.65;;;;;;;-1.65;87.49;100090.41;10509358;28;20040;-75
2022/12/24 12:21:33;;;;;;;0.93;0.70;;;;;;;-1.66;87.38;100102.22;10487125;28;20148;-74
2022/12/24 12:26:36;;;;;;;0.60;0.43;;;;;;;-1.57;87.31;100114.38;10503366;28;20187;-74
2022/12/24 12:31:47;;;;;;;1.15;0.90;;;;;;;-1.60;87.06;100136.31;10522712;28;20051;-75
2022/12/24 12:37:11;;;;;;;2.63;0.70;;;;;;;-1.73;85.97;100146.34;10519638;28;20485;-76
2022/12/24 12:42:30;;;;;;;0.88;0.70;;;;;;;-1.73;86.69;100152.53;10519205;28;20040;-74
2022/12/24 12:48:19;;;;;;;2.85;0.80;;;;;;;-1.70;86.13;100140.53;10500921;28;20051;-73
2022/12/24 12:53:38;;;;;;;1.75;0.57;;;;;;;-1.67;86.23;100159.75;10518787;28;20045;-73
2022/12/24 12:59:06;;;;;;;0.55;0.47;;;;;;;-1.74;86.34;100171.56;10517227;28;20059;-74
2022/12/24 13:04:15;;;;;;;;;;;;;;;-1.73;86.20;100171.38;10523524;28;20040;-73
2022/12/24 13:09:54;;;;;;;0.45;0.38;;;;;;;-1.74;85.90;100183.13;10530978;28;19920;-73
2022/12/24 13:15:27;;;;;;;0.47;0.30;;;;;;;-1.80;86.02;100184.00;10513592;28;20056;-73
2022/12/24 13:20:35;;;;;;;2.85;0.60;;;;;;;-1.75;86.44;100203.00;10530601;28;20047;-74
2022/12/24 13:25:39;;;;;;;;;;;;;;;-1.71;86.31;100209.63;10513263;28;20518;-74
2022/12/24 13:30:41;;;;;;;1.20;0.60;;;;;;;-1.75;86.24;100221.00;10512559;28;19920;-75
2022/12/24 13:35:58;;;;;;;1.77;0.65;;;;;;;-1.57;86.44;100229.22;10530000;28;20523;-74
2022/12/24 13:41:33;;;;;;;1.80;0.40;;;;;;;-1.65;86.61;100243.75;10529650;28;20123;-74
2022/12/24 13:47:04;;;;;;;0.70;0.55;;;;;;;-1.74;86.28;100247.69;10468465;28;20137;-73
2022/12/24 13:52:06;;;;;;;2.88;0.80;;;;;;;-1.70;86.81;100258.88;10498435;28;20036;-75
2022/12/24 13:57:37;;;;;;;2.47;0.80;;;;;;;-1.75;86.83;100264.03;10501891;28;20071;-73
2022/12/24 14:03:05;;;;;;;2.35;0.70;;;;;;;-1.71;86.78;100267.97;10516338;28;20053;-73
2022/12/24 14:08:08;;;;;;;;;;;;;;;-1.60;87.12;100283.44;10523912;28;20043;-74
2022/12/24 14:13:38;;;;;;;0.50;0.30;;;;;;;-1.72;86.78;100291.38;10525195;28;19921;-74
2022/12/24 14:18:46;;;;;;;1.45;0.60;;;;;;;-1.78;86.88;100313.69;10484116;28;20051;-74
2022/12/24 14:23:52;;;;;;;3.33;0.90;;;;;;;-1.78;86.47;100305.63;10516075;28;20174;-73
2022/12/24 14:29:16;;;;;;;1.38;0.60;;;;;;;-1.76;86.73;100326.94;10494184;28;20052;-76
2022/12/24 14:34:18;;;;;;;0.85;0.65;;;;;;;-1.73;86.64;100326.53;10507443;28;20040;-74
2022/12/24 14:39:31;;;;;;;1.35;0.77;;;;;;;-1.82;86.91;100344.75;10520372;28;20335;-74
2022/12/24 14:44:40;;;;;;;2.58;0.60;;;;;;;-1.87;86.41;100347.22;10501225;28;20040;-76
2022/12/24 14:50:04;;;;;;;0.90;0.70;;;;;;;-1.89;86.02;100338.53;10510736;28;20036;-75
2022/12/24 14:55:40;;;;;;;1.13;0.80;;;;;;;-2.00;85.53;100353.44;10488569;28;20045;-74
2022/12/24 15:00:42;;;;;;;6.43;2.40;;;;;;;-2.02;85.54;100342.06;10501895;28;20044;-75
2022/12/24 15:05:45;;;;;;;0.88;0.50;;;;;;;-2.08;85.50;100355.47;10508654;28;20051;-73
2022/12/24 15:10:53;;;;;;;0.30;0.30;;;;;;;-2.12;85.49;100372.00;10508308;28;20423;-74
2022/12/24 15:15:55;;;;;;;0.60;0.33;;;;;;;-1.96;85.68;100367.28;10503563;28;20119;-72
2022/12/24 15:21:01;;;;;;;1.27;0.70;;;;;;;-2.05;85.76;100382.78;10495744;28;20045;-75
2022/12/24 15:26:06;;;;;;;1.70;0.73;;;;;;;-1.94;86.06;100378.66;10520532;28;20048;-74
2022/12/24 15:31:11;;;;;;;1.30;0.50;;;;;;;-1.83;85.87;100386.94;10500058;28;20686;-74
2022/12/24 15:36:15;;;;;;;2.35;0.52;;;;;;;-1.97;85.94;100396.03;10514262;28;20041;-72
2022/12/24 15:41:21;;;;;;;1.08;0.43;;;;;;;-1.95;85.88;100406.56;10559014;28;20056;-72
2022/12/24 15:46:25;;;;;;;0.93;0.70;;;;;;;-1.87;85.45;100412.59;10521089;28;20083;-72
2022/12/24 15:51:35;;;;;;;2.35;0.95;;;;;;;-1.91;85.38;100414.03;10492970;28;20059;-72
2022/12/24 15:56:44;;;;;;;1.33;0.98;;;;;;;-2.01;85.41;100431.59;10508943;28;20430;-71
2022/12/24 16:01:47;;;;;;;1.17;0.63;;;;;;;-2.02;85.57;100429.94;10474969;28;20033;-73
2022/12/24 16:07:02;;;;;;;1.30;0.60;;;;;;;-2.09;85.51;100429.09;10490522;28;20052;-72
2022/12/24 16:12:21;;;;;;;1.65;0.90;;;;;;;-2.10;85.59;100438.19;10526230;28;20052;-72
2022/12/24 16:17:28;;;;;;;3.58;0.90;;;;;;;-2.17;85.90;100439.00;10486536;28;20052;-72
2022/12/24 16:22:31;;;;;;;0.90;0.68;;;;;;;-2.15;85.29;100447.69;10514692;28;20041;-71
2022/12/24 16:27:34;;;;;;;2.42;1.02;;;;;;;-2.09;85.00;100445.22;10508356;28;20049;-71
2022/12/24 16:32:36;;;;;;;1.95;0.80;;;;;;;-2.07;84.93;100449.38;10526253;28;20040;-74
2022/12/24 16:37:39;;;;;;;3.20;1.10;;;;;;;-1.93;84.75;100452.91;10473446;28;20064;-72
2022/12/24 16:48:05;;;;;;;3.58;1.05;;;;;;;-2.10;84.45;100470.44;10518325;28;20052;-72
2022/12/24 16:53:11;;;;;;;1.40;0.80;;;;;;;-2.10;84.61;100478.50;10508287;28;20068;-72
2022/12/24 16:58:14;;;;;;;1.17;0.77;;;;;;;-2.24;85.01;100491.09;10501984;28;20033;-73
2022/12/24 17:03:16;;;;;;;1.83;0.70;;;;;;;-2.38;84.24;100484.84;10492049;28;20061;-73
2022/12/24 17:08:18;;;;;;;3.00;0.82;;;;;;;-2.44;84.70;100486.44;10522490;28;20048;-74
2022/12/24 17:13:21;;;;;;;1.80;0.70;;;;;;;-2.45;84.43;100500.09;10529074;28;20048;-73
2022/12/24 17:18:24;;;;;;;2.45;0.85;;;;;;;-2.49;84.03;100498.84;10507264;28;20047;-74
2022/12/24 17:23:26;;;;;;;2.65;0.77;;;;;;;-2.47;83.80;100502.97;10549689;28;20051;-72
2022/12/24 17:28:29;;;;;;;1.17;0.55;;;;;;;-2.32;84.06;100500.16;10531714;28;20050;-72
2022/12/24 17:33:31;;;;;;;0.60;0.60;;;;;;;-2.37;84.05;100508.00;10531206;28;20036;-72
2022/12/24 17:38:35;;;;;;;3.30;0.80;;;;;;;-2.29;83.79;100523.94;10528333;28;20415;-72
2022/12/24 17:43:37;;;;;;;1.30;0.70;;;;;;;-2.34;83.34;100530.94;10532718;28;20028;-73
2022/12/24 17:48:40;;;;;;;3.42;0.75;;;;;;;-2.46;83.13;100536.88;10526678;28;20055;-73
2022/12/24 17:53:42;;;;;;;2.42;0.68;;;;;;;-2.44;83.58;100539.34;10531316;28;20051;-73
2022/12/24 17:58:45;;;;;;;1.15;0.75;;;;;;;-2.50;83.60;100548.22;10504408;28;20050;-73
2022/12/24 18:03:49;;;;;;;2.38;0.82;;;;;;;-2.53;83.81;100562.06;10529864;28;20048;-72
2022/12/24 18:08:51;;;;;;;1.38;1.00;;;;;;;-2.50;83.54;100567.03;10569664;28;20055;-71
2022/12/24 18:13:55;;;;;;;1.75;1.02;;;;;;;-2.49;83.90;100563.31;10553726;28;20063;-72
2022/12/24 18:18:58;;;;;;;1.30;1.13;;;;;;;-2.40;84.02;100567.50;10470709;28;20519;-72
2022/12/24 18:24:00;;;;;;;3.95;1.10;;;;;;;-2.42;83.80;100576.81;10508661;28;20442;-71
2022/12/24 18:29:03;;;;;;;2.28;0.90;;;;;;;-2.40;83.41;100577.44;10524853;28;20037;-71
2022/12/24 18:34:07;;;;;;;2.25;0.90;;;;;;;-2.37;83.39;100585.91;10518374;28;20064;-72
2022/12/24 18:39:09;;;;;;;1.52;0.70;;;;;;;-2.33;83.79;100600.59;10526568;28;20431;-72
2022/12/24 18:44:12;;;;;;;1.00;0.90;;;;;;;-2.19;83.71;100605.03;10528180;28;20128;-72
2022/12/24 18:49:15;;;;;;;2.30;0.88;;;;;;;-2.10;82.78;100611.06;10529063;28;20047;-72
2022/12/24 18:54:18;;;;;;;1.08;0.70;;;;;;;-2.28;82.65;100611.59;10516230;28;20408;-72
2022/12/24 18:59:20;;;;;;;1.85;0.90;;;;;;;-2.42;83.15;100617.09;10519655;28;20054;-73
2022/12/24 19:04:22;;;;;;;4.07;1.50;;;;;;;-2.31;82.99;100620.03;10519228;28;20037;-74
2022/12/24 19:09:25;;;;;;;2.13;0.98;;;;;;;-2.33;82.75;100640.91;10505280;28;20594;-71
2022/12/24 19:14:28;;;;;;;3.22;1.33;;;;;;;-2.22;82.58;100651.13;10524659;28;20033;-72
2022/12/24 19:19:30;;;;;;;3.15;1.25;;;;;;;-2.28;82.63;100651.06;10520849;28;20054;-73
2022/12/24 19:24:58;;;;;;;2.88;1.20;;;;;;;-2.39;82.54;100654.31;10523159;28;20414;-75
2022/12/24 19:30:00;;;;;;;3.38;1.10;;;;;;;-2.45;82.39;100658.59;10523703;28;20049;-76
2022/12/24 19:35:02;;;;;;;2.13;1.33;;;;;;;-2.44;82.45;100655.72;10518447;28;20526;-75
2022/12/24 19:40:05;;;;;;;4.10;1.30;;;;;;;-2.48;82.50;100661.69;10504978;28;20041;-74
2022/12/24 19:45:09;;;;;;;2.92;1.70;;;;;;;-2.25;82.64;100667.66;10521947;28;20058;-74
2022/12/24 19:50:11;;;;;;;2.53;1.52;;;;;;;-2.37;82.31;100674.59;10523444;28;20045;-76
2022/12/24 19:55:14;;;;;;;3.85;1.88;;;;;;;-2.34;82.56;100687.63;10519967;28;20637;-74
2022/12/24 20:00:17;;;;;;;3.85;1.25;;;;;;;-2.29;82.24;100673.59;10501633;28;20049;-74
2022/12/24 20:05:19;;;;;;;1.70;1.25;;;;;;;-2.20;82.37;100673.25;10519496;28;20048;-74
2022/12/24 20:10:21;;;;;;;1.63;1.10;;;;;;;-2.06;82.26;100684.94;10523685;28;20044;-74
2022/12/24 20:15:23;;;;;;;3.10;2.00;;;;;;;-2.00;81.55;100688.69;10530973;28;20079;-74
2022/12/24 20:20:25;;;;;;;5.28;2.78;;;;;;;-2.00;82.12;100688.69;10515122;28;20044;-74
2022/12/24 20:25:28;;;;;;;2.78;1.58;;;;;;;-2.01;82.13;100690.53;10526542;28;20041;-74
2022/12/24 20:30:30;;;;;;;2.83;1.60;;;;;;;-1.79;81.71;100703.91;10529898;28;20048;-74
2022/12/24 20:35:34;;;;;;;1.27;1.10;;;;;;;-1.74;81.61;100712.19;10525410;28;20052;-73
2022/12/24 20:40:44;;;;;;;2.17;1.20;;;;;;;-1.62;80.90;100719.50;10498346;28;20049;-74
2022/12/24 20:45:50;;;;;;;0.88;0.73;;;;;;;-1.37;80.91;100719.00;10528400;28;20048;-73
2022/12/24 20:50:52;;;;;;;2.28;1.10;;;;;;;-1.23;80.74;100731.47;10511690;28;20044;-74
2022/12/24 20:55:55;;;;;;;1.65;1.17;;;;;;;-1.18;79.92;100723.63;10529797;28;20040;-74
2022/12/24 21:00:57;;;;;;;1.98;1.20;;;;;;;-1.14;80.75;100729.44;10527620;28;20040;-74
2022/12/24 21:05:59;;;;;;;1.83;1.02;;;;;;;-1.15;80.56;100744.75;10506218;28;20040;-74
2022/12/24 21:16:22;;;;;;;1.92;0.80;;;;;;;-1.39;81.02;100740.75;10528376;28;20135;-74
2022/12/24 21:21:24;;;;;;;1.33;0.60;;;;;;;-1.31;81.50;100745.09;10526216;28;20052;-73
2022/12/24 21:26:26;;;;;;;1.27;0.88;;;;;;;-1.38;82.33;100760.41;10526644;28;20051;-74
2022/12/24 21:31:30;;;;;;;2.25;1.10;;;;;;;-1.01;82.55;100756.41;10524914;28;20042;-73
2022/12/24 21:36:32;;;;;;;1.80;1.23;;;;;;;-1.07;82.46;100754.50;10526608;28;20048;-72
2022/12/24 21:41:34;;;;;;;3.83;1.15;;;;;;;-1.01;82.47;100768.00;10528569;28;20036;-73
2022/12/24 21:46:36;;;;;;;4.30;1.15;;;;;;;-0.93;82.67;100772.38;10496695;28;20052;-73
2022/12/24 21:51:40;;;;;;;5.25;1.00;;;;;;;-0.91;82.35;100778.38;10519875;28;20041;-73
2022/12/24 22:02:03;;;;;;;2.85;1.33;;;;;;;-1.08;83.23;100772.53;10522408;28;20046;-74
2022/12/24 22:12:31;;;;;;;3.45;1.15;;;;;;;-1.04;83.61;100779.19;10525508;28;20633;-73
2022/12/24 22:17:33;;;;;;;2.70;1.45;;;;;;;-0.93;83.74;100786.66;10507556;28;20391;-73
2022/12/24 22:22:35;;;;;;;5.32;1.40;;;;;;;-0.99;83.80;100790.19;10497933;28;20348;-73
2022/12/24 22:27:38;;;;;;;3.50;1.65;;;;;;;-0.77;83.55;100795.41;10522597;28;20051;-73
2022/12/24 22:32:40;;;;;;;3.13;1.95;;;;;;;-0.97;83.57;100796.19;10526288;28;20511;-73
2022/12/24 22:37:42;;;;;;;4.63;1.52;;;;;;;-0.97;84.12;100806.97;10516906;28;20052;-73
2022/12/24 22:42:45;;;;;;;3.08;1.70;;;;;;;-1.06;84.35;100804.63;10522682;28;20082;-73
2022/12/24 22:47:47;;;;;;;3.80;1.40;;;;;;;-1.03;84.35;100817.72;10500639;28;20048;-73
2022/12/24 22:52:49;;;;;;;3.10;1.30;;;;;;;-0.96;84.70;100819.41;10526926;28;20048;-73
2022/12/24 22:57:51;;;;;;;4.18;1.10;;;;;;;-0.92;84.55;100819.81;10507841;28;20048;-73
2022/12/24 23:02:53;;;;;;;3.65;1.10;;;;;;;-0.96;84.21;100830.19;10512987;28;20045;-75
2022/12/24 23:07:55;;;;;;;2.60;1.30;;;;;;;-0.69;83.78;100832.97;10509610;28;20628;-75
2022/12/24 23:18:18;;;;;;;2.72;1.25;;;;;;;-0.66;83.08;100841.47;10515342;28;20040;-75
2022/12/24 23:23:21;;;;;;;2.72;1.10;;;;;;;-0.68;83.10;100842.72;10526081;28;20040;-75
2022/12/24 23:28:23;;;;;;;3.40;1.60;;;;;;;-0.66;83.20;100846.03;10518400;28;20043;-75
2022/12/24 23:33:26;;;;;;;2.25;1.50;;;;;;;-0.65;83.48;100850.41;10517395;28;20044;-75
2022/12/24 23:38:33;;;;;;;2.25;1.08;;;;;;;-0.72;82.46;100860.31;10517254;28;20434;-75
2022/12/24 23:43:36;;;;;;;1.88;1.20;;;;;;;-0.67;82.25;100866.78;10497516;28;20049;-75
2022/12/24 23:48:38;;;;;;;2.25;1.20;;;;;;;-0.82;83.14;100859.88;10493464;28;20032;-75
2022/12/24 23:53:44;;;;;;;1.95;1.27;;;;;;;-0.73;83.08;100866.72;10530379;28;20521;-75
2022/12/24 23:58:50;;;;;;;2.80;1.25;;;;;;;-0.78;83.70;100866.50;10508786;28;20424;-75
